Time;durP1;ratioP1;P1;durP2;ratioP2;P2;SDS_P1;SDS_P2;PMS_P1;PMS_P2;Temp;Humidity;BMP_temperature;BMP_pressure;BME280_temperature;BME280_humidity;BME280_pressure;Samples;Min_cycle;Max_cycle;Signal;HPM_P1;HPM_P2
2022/03/19 00:01:59;;;;;;;332.70;121.25;;;0.50;99.90;;;;;;5053140;28;20043;-74
2022/03/19 00:04:25;;;;;;;262.40;104.88;;;0.40;99.90;;;;;;5053279;28;20021;-74
2022/03/19 00:06:51;;;;;;;220.48;89.53;;;0.40;99.90;;;;;;5052720;28;20029;-72
2022/03/19 00:09:17;;;;;;;210.05;88.32;;;0.30;99.90;;;;;;5052956;28;20452;-72
2022/03/19 00:11:43;;;;;;;214.60;93.80;;;0.20;99.90;;;;;;5052906;28;20037;-74
2022/03/19 00:14:12;;;;;;;264.83;110.00;;;0.10;99.90;;;;;;5052605;28;20025;-73
2022/03/19 00:16:38;;;;;;;263.60;110.60;;;0.10;99.90;;;;;;5052515;28;20529;-73
2022/03/19 00:19:05;;;;;;;234.15;101.82;;;0.10;99.90;;;;;;5052827;28;20029;-72
2022/03/19 00:21:31;;;;;;;303.65;122.57;;;0.00;99.90;;;;;;5052719;28;20037;-73
2022/03/19 00:23:57;;;;;;;300.35;109.65;;;0.10;99.90;;;;;;5052702;28;20025;-73
2022/03/19 00:26:23;;;;;;;161.55;72.25;;;0.00;99.90;;;;;;5052594;28;20162;-73
2022/03/19 00:28:49;;;;;;;154.77;63.08;;;0.00;99.90;;;;;;5052535;28;20037;-73
2022/03/19 00:31:14;;;;;;;121.40;50.30;;;0.00;99.90;;;;;;5052162;28;20055;-73
2022/03/19 00:33:41;;;;;;;135.10;51.70;;;-0.10;99.90;;;;;;5052317;28;20077;-71
2022/03/19 00:36:07;;;;;;;144.55;53.28;;;-0.10;99.90;;;;;;5052759;28;20068;-73
2022/03/19 00:38:33;;;;;;;112.93;49.20;;;-0.10;99.90;;;;;;5052557;28;20028;-72
2022/03/19 00:40:59;;;;;;;105.60;46.85;;;-0.10;99.90;;;;;;5052665;28;20032;-72
2022/03/19 00:43:24;;;;;;;119.55;51.65;;;-0.20;99.90;;;;;;5052661;28;20025;-71
2022/03/19 00:45:50;;;;;;;106.03;48.42;;;-0.20;99.90;;;;;;5052508;28;20422;-72
2022/03/19 00:48:17;;;;;;;122.63;57.55;;;-0.20;99.90;;;;;;5052555;28;20446;-72
2022/03/19 00:50:43;;;;;;;128.15;54.13;;;-0.30;99.90;;;;;;5052584;28;20028;-71
2022/03/19 00:53:09;;;;;;;112.38;50.47;;;-0.30;99.90;;;;;;5055709;28;20455;-73
2022/03/19 00:55:34;;;;;;;105.93;47.67;;;-0.30;99.90;;;;;;5056509;28;20056;-74
2022/03/19 00:58:00;;;;;;;108.43;49.13;;;-0.20;99.90;;;;;;5056969;28;20258;-73
2022/03/19 01:00:26;;;;;;;100.35;48.95;;;-0.30;99.90;;;;;;5056063;28;20025;-75
2022/03/19 01:02:54;;;;;;;92.60;45.33;;;-0.30;99.90;;;;;;5056430;28;20017;-72
2022/03/19 01:05:22;;;;;;;95.88;45.90;;;-0.40;99.90;;;;;;5056614;28;20033;-73
2022/03/19 01:07:53;;;;;;;97.82;44.28;;;-0.40;99.90;;;;;;5056391;28;20033;-72
2022/03/19 01:10:21;;;;;;;;;;;-0.40;99.90;;;;;;5056664;28;20116;-74
2022/03/19 01:12:48;;;;;;;188.77;59.88;;;-0.40;99.90;;;;;;5056123;28;20355;-72
2022/03/19 01:15:15;;;;;;;126.38;51.55;;;-0.30;99.90;;;;;;5056162;28;20025;-72
2022/03/19 01:17:41;;;;;;;158.70;60.28;;;-0.40;99.90;;;;;;5056193;28;20029;-73
2022/03/19 01:20:10;;;;;;;116.38;50.60;;;-0.50;99.90;;;;;;5055993;28;20028;-74
2022/03/19 01:22:37;;;;;;;119.03;51.10;;;-0.40;99.90;;;;;;5056342;28;20025;-72
2022/03/19 01:25:05;;;;;;;127.13;54.60;;;-0.40;99.90;;;;;;5056405;28;20029;-71
2022/03/19 01:27:35;;;;;;;107.10;49.28;;;-0.40;99.90;;;;;;5056499;28;20082;-71
2022/03/19 01:30:02;;;;;;;114.80;52.92;;;-0.40;99.90;;;;;;5056517;28;20124;-72
2022/03/19 01:32:28;;;;;;;143.07;61.50;;;-0.40;99.90;;;;;;5056816;28;20075;-72
2022/03/19 01:34:54;;;;;;;88.30;42.75;;;-0.40;99.90;;;;;;5056565;28;20048;-72
2022/03/19 01:37:21;;;;;;;102.05;43.28;;;-0.40;99.90;;;;;;5056283;28;20032;-73
2022/03/19 01:39:47;;;;;;;78.18;38.25;;;-0.50;99.90;;;;;;5056608;28;20106;-73
2022/03/19 01:42:22;;;;;;;87.18;39.25;;;-0.60;99.90;;;;;;5056122;28;20071;-73
2022/03/19 01:44:48;;;;;;;80.78;37.83;;;-0.50;99.90;;;;;;5056590;28;20546;-72
2022/03/19 01:47:14;;;;;;;84.85;40.15;;;-0.50;99.90;;;;;;5056043;28;20120;-72
2022/03/19 01:49:40;;;;;;;84.22;39.42;;;-0.50;99.90;;;;;;5056237;28;20112;-73
2022/03/19 01:52:06;;;;;;;88.07;38.55;;;-0.50;99.90;;;;;;5056260;28;20118;-73
2022/03/19 01:54:34;;;;;;;97.45;44.17;;;-0.50;99.90;;;;;;5056245;28;20025;-73
2022/03/19 01:57:01;;;;;;;100.53;46.35;;;-0.50;99.90;;;;;;5055908;28;20025;-72
2022/03/19 01:59:32;;;;;;;100.82;44.72;;;-0.60;99.90;;;;;;5055886;28;20482;-73
2022/03/19 02:01:58;;;;;;;149.85;63.05;;;-0.50;99.90;;;;;;5055775;28;20036;-72
2022/03/19 02:04:24;;;;;;;164.13;67.70;;;-0.60;99.90;;;;;;5055350;28;20029;-73
2022/03/19 02:06:51;;;;;;;123.45;54.08;;;-0.60;99.90;;;;;;5056264;28;20025;-73
2022/03/19 02:09:17;;;;;;;100.68;45.33;;;-0.60;99.90;;;;;;5055866;28;20025;-72
2022/03/19 02:11:44;;;;;;;94.43;42.78;;;-0.60;99.90;;;;;;5055973;28;20029;-71
2022/03/19 02:14:10;;;;;;;99.30;44.53;;;-0.70;99.90;;;;;;5055646;28;20056;-73
2022/03/19 02:16:36;;;;;;;95.03;45.47;;;-0.70;99.90;;;;;;5055794;28;20423;-73
2022/03/19 02:19:03;;;;;;;92.25;44.58;;;-0.70;99.90;;;;;;5055496;28;20384;-73
2022/03/19 02:21:49;;;;;;;102.45;47.22;;;-0.70;99.90;;;;;;5055606;28;20391;-73
2022/03/19 02:27:01;;;;;;;113.35;52.40;;;-0.80;99.90;;;;;;5055525;28;20163;-73
2022/03/19 02:29:27;;;;;;;124.45;56.72;;;-0.90;99.90;;;;;;5054526;28;20361;-72
2022/03/19 02:31:57;;;;;;;142.65;63.78;;;-0.90;99.90;;;;;;5055610;28;20482;-72
2022/03/19 02:34:22;;;;;;;139.85;62.58;;;-0.90;99.90;;;;;;5055093;28;20033;-72
2022/03/19 02:36:48;;;;;;;129.90;55.50;;;-0.90;99.90;;;;;;5055738;28;20082;-72
2022/03/19 02:39:28;;;;;;;113.60;49.42;;;-0.80;99.90;;;;;;5055145;28;20147;-73
2022/03/19 02:41:55;;;;;;;104.90;47.55;;;-0.80;99.90;;;;;;5055432;28;20029;-72
2022/03/19 02:44:21;;;;;;;102.28;45.67;;;-0.80;99.90;;;;;;5054945;28;20221;-72
2022/03/19 02:46:49;;;;;;;98.13;43.95;;;-0.80;99.90;;;;;;5055243;28;20032;-72
2022/03/19 02:49:16;;;;;;;102.90;43.95;;;-0.80;99.90;;;;;;5055009;28;20063;-73
2022/03/19 02:51:45;;;;;;;101.22;45.58;;;-0.90;99.90;;;;;;5054765;28;20068;-73
2022/03/19 02:54:17;;;;;;;113.00;48.45;;;-0.90;99.90;;;;;;5054837;28;20029;-73
2022/03/19 02:56:44;;;;;;;117.82;52.55;;;-0.90;99.90;;;;;;5055058;28;20414;-72
2022/03/19 02:59:17;;;;;;;129.80;57.45;;;-0.90;99.90;;;;;;5055009;28;20021;-75
2022/03/19 03:01:48;;;;;;;122.97;53.28;;;-0.90;99.90;;;;;;5054898;28;20048;-74
2022/03/19 03:04:15;;;;;;;115.80;50.95;;;-0.90;99.90;;;;;;5055016;28;20028;-74
2022/03/19 03:06:43;;;;;;;113.07;48.92;;;-0.90;99.90;;;;;;5054676;28;20364;-73
2022/03/19 03:09:10;;;;;;;98.55;43.85;;;-0.90;99.90;;;;;;5054789;28;20372;-72
2022/03/19 03:11:36;;;;;;;98.15;47.17;;;-0.90;99.90;;;;;;5054417;28;20082;-74
2022/03/19 03:14:03;;;;;;;103.57;44.63;;;-0.80;99.90;;;;;;5054750;28;20499;-73
2022/03/19 03:16:30;;;;;;;100.32;45.05;;;-0.80;99.90;;;;;;5054702;28;20021;-73
2022/03/19 03:18:57;;;;;;;96.13;43.03;;;-0.80;99.90;;;;;;5054589;28;20025;-74
2022/03/19 03:21:24;;;;;;;98.20;43.38;;;-0.80;99.90;;;;;;5053504;28;20391;-72
2022/03/19 03:23:50;;;;;;;96.65;41.35;;;-0.80;99.90;;;;;;5054204;28;20025;-74
2022/03/19 03:26:16;;;;;;;105.40;45.95;;;-0.80;99.90;;;;;;5053907;28;20115;-74
2022/03/19 03:28:42;;;;;;;97.50;44.30;;;-0.80;99.90;;;;;;5054332;28;20108;-74
2022/03/19 03:31:07;;;;;;;93.53;44.53;;;-0.80;99.90;;;;;;5054538;28;20047;-74
2022/03/19 03:33:33;;;;;;;99.80;43.00;;;-0.80;99.90;;;;;;5054195;28;20029;-74
2022/03/19 03:35:59;;;;;;;90.35;41.90;;;-0.80;99.90;;;;;;5054515;28;20448;-73
2022/03/19 03:38:25;;;;;;;92.32;41.10;;;-0.80;99.90;;;;;;5054588;28;20028;-73
2022/03/19 03:40:51;;;;;;;90.85;42.78;;;-0.80;99.90;;;;;;5054339;28;20395;-74
2022/03/19 03:43:17;;;;;;;97.40;42.97;;;-0.80;99.90;;;;;;5054067;28;20075;-73
2022/03/19 03:45:43;;;;;;;92.53;44.08;;;-0.90;99.90;;;;;;5054495;28;20108;-73
2022/03/19 03:48:10;;;;;;;91.05;41.83;;;-0.90;99.90;;;;;;5054253;28;20028;-72
2022/03/19 03:50:37;;;;;;;103.45;43.72;;;-1.00;99.90;;;;;;5054299;28;20040;-73
2022/03/19 03:53:04;;;;;;;98.35;43.45;;;-1.10;99.90;;;;;;5053953;28;20025;-74
2022/03/19 03:55:31;;;;;;;101.97;45.45;;;-1.10;99.90;;;;;;5054078;28;20029;-74
2022/03/19 03:57:59;;;;;;;90.93;42.10;;;-1.10;99.90;;;;;;5054134;28;20025;-73
2022/03/19 04:00:24;;;;;;;94.20;43.55;;;-1.10;99.90;;;;;;5054001;28;20025;-73
2022/03/19 04:02:50;;;;;;;104.72;48.00;;;-1.20;99.90;;;;;;5053837;28;20028;-74
2022/03/19 04:05:16;;;;;;;104.30;45.15;;;-1.20;99.90;;;;;;5054021;28;20021;-74
2022/03/19 04:07:42;;;;;;;106.93;48.90;;;-1.20;99.90;;;;;;5053820;28;20033;-74
2022/03/19 04:10:08;;;;;;;108.40;50.05;;;-1.10;99.90;;;;;;5053708;28;20353;-74
2022/03/19 04:12:35;;;;;;;117.82;52.38;;;-1.10;99.90;;;;;;5053893;28;20361;-72
2022/03/19 04:15:01;;;;;;;134.95;53.55;;;-1.10;99.90;;;;;;5054002;28;20029;-72
2022/03/19 04:17:26;;;;;;;117.63;50.78;;;-1.20;99.90;;;;;;5053984;28;20031;-73
2022/03/19 04:19:52;;;;;;;108.20;47.08;;;-1.20;99.90;;;;;;5052538;28;20102;-74
2022/03/19 04:22:18;;;;;;;99.78;44.60;;;-1.20;99.90;;;;;;5053761;28;20055;-75
2022/03/19 04:24:44;;;;;;;103.22;44.35;;;-1.20;99.90;;;;;;5053730;28;20056;-74
2022/03/19 04:27:10;;;;;;;108.43;46.83;;;-1.20;99.90;;;;;;5053309;28;20064;-76
2022/03/19 04:29:36;;;;;;;120.78;49.05;;;-1.20;99.90;;;;;;5052152;28;20475;-72
2022/03/19 04:32:02;;;;;;;102.45;46.63;;;-1.30;99.90;;;;;;5053360;28;20037;-73
2022/03/19 04:34:28;;;;;;;109.20;48.58;;;-1.30;99.90;;;;;;5053732;28;20048;-74
2022/03/19 04:36:54;;;;;;;99.40;45.90;;;-1.30;99.90;;;;;;5053766;28;20025;-73
2022/03/19 04:39:20;;;;;;;114.40;44.55;;;-1.30;99.90;;;;;;5053315;28;20080;-74
2022/03/19 04:41:45;;;;;;;96.90;44.95;;;-1.30;99.90;;;;;;5053327;28;20029;-72
2022/03/19 04:44:11;;;;;;;109.13;47.08;;;-1.30;99.90;;;;;;5053775;28;20056;-74
2022/03/19 04:46:37;;;;;;;141.20;57.78;;;-1.40;99.90;;;;;;5053797;28;20402;-73
2022/03/19 04:49:03;;;;;;;183.80;75.38;;;-1.40;99.90;;;;;;5053595;28;20017;-72
2022/03/19 04:51:32;;;;;;;151.23;59.67;;;-1.40;99.90;;;;;;5053050;28;20041;-74
2022/03/19 04:53:58;;;;;;;160.85;65.70;;;-1.40;99.90;;;;;;5053473;28;20057;-73
2022/03/19 04:56:25;;;;;;;157.50;63.10;;;-1.40;99.90;;;;;;5053473;28;20028;-76
2022/03/19 04:58:53;;;;;;;125.57;52.10;;;-1.50;99.90;;;;;;5053478;28;20026;-73
2022/03/19 05:01:20;;;;;;;134.40;55.20;;;-1.50;99.90;;;;;;5053152;28;20047;-73
2022/03/19 05:03:45;;;;;;;122.50;53.22;;;-1.40;99.90;;;;;;5053330;28;20029;-73
2022/03/19 05:06:11;;;;;;;110.32;48.28;;;-1.40;99.90;;;;;;5053475;28;20131;-76
2022/03/19 05:08:37;;;;;;;116.32;47.38;;;-1.40;99.90;;;;;;5052732;28;20036;-73
2022/03/19 05:11:16;;;;;;;122.00;51.33;;;-1.40;99.90;;;;;;5052750;28;20086;-76
2022/03/19 05:13:48;;;;;;;128.27;51.33;;;-1.30;99.90;;;;;;5053607;28;20463;-73
2022/03/19 05:16:15;;;;;;;166.98;63.95;;;-1.30;99.90;;;;;;5053382;28;20032;-74
2022/03/19 05:18:41;;;;;;;197.48;75.80;;;-1.20;99.90;;;;;;5053377;28;20100;-72
2022/03/19 05:21:07;;;;;;;197.73;75.45;;;-1.20;99.90;;;;;;5053163;28;20159;-74
2022/03/19 05:23:37;;;;;;;173.48;69.20;;;-1.00;99.90;;;;;;5052848;28;20021;-74
2022/03/19 05:26:03;;;;;;;162.93;66.30;;;-1.00;99.90;;;;;;5053109;28;20483;-73
2022/03/19 05:28:28;;;;;;;157.25;59.65;;;-0.90;99.90;;;;;;5053439;28;20025;-73
2022/03/19 05:30:54;;;;;;;137.82;54.97;;;-0.80;99.90;;;;;;5053104;28;20049;-74
2022/03/19 05:34:29;;;;;;;102.25;47.85;;;-0.80;99.90;;;;;;5052685;28;20430;-75
2022/03/19 05:36:06;;;;;;;146.75;58.38;;;-0.60;99.90;;;;;;5052596;28;20111;-74
2022/03/19 05:38:32;;;;;;;399.33;136.15;;;-0.50;99.90;;;;;;5053840;28;20053;-75
2022/03/19 05:40:58;;;;;;;322.33;113.57;;;-0.40;99.90;;;;;;5056500;28;20025;-75
2022/03/19 05:43:24;;;;;;;243.38;91.35;;;-0.30;99.90;;;;;;5056815;28;20013;-75
2022/03/19 05:45:49;;;;;;;192.18;76.63;;;-0.20;99.90;;;;;;5056267;28;20021;-73
2022/03/19 05:48:15;;;;;;;175.63;70.40;;;-0.10;99.90;;;;;;5056369;28;20447;-74
2022/03/19 05:50:41;;;;;;;157.85;66.53;;;0.00;99.90;;;;;;5056491;28;20106;-74
2022/03/19 05:53:07;;;;;;;139.18;60.38;;;0.10;99.90;;;;;;5056069;28;20094;-76
2022/03/19 05:55:32;;;;;;;148.18;62.55;;;0.20;99.90;;;;;;5056216;28;20095;-75
2022/03/19 05:57:58;;;;;;;158.10;68.93;;;0.30;99.90;;;;;;5056528;28;20032;-74
2022/03/19 06:00:24;;;;;;;147.48;66.68;;;0.40;99.90;;;;;;5055956;28;20452;-74
2022/03/19 06:02:49;;;;;;;157.95;67.90;;;0.50;99.90;;;;;;5056059;28;20056;-74
2022/03/19 06:05:15;;;;;;;166.02;74.05;;;0.50;99.90;;;;;;5056175;28;20083;-72
2022/03/19 06:07:41;;;;;;;162.65;71.65;;;0.70;99.90;;;;;;5055846;28;20029;-73
2022/03/19 06:10:08;;;;;;;165.75;72.93;;;0.70;99.90;;;;;;5056219;28;20053;-73
2022/03/19 06:12:34;;;;;;;167.90;76.75;;;0.80;99.90;;;;;;5055978;28;20442;-74
2022/03/19 06:15:00;;;;;;;163.50;73.20;;;0.90;99.90;;;;;;5055875;28;20036;-73
2022/03/19 06:17:26;;;;;;;156.25;68.85;;;1.00;99.90;;;;;;5055817;28;20024;-73
2022/03/19 06:19:54;;;;;;;147.82;70.50;;;1.10;99.90;;;;;;5056093;28;20056;-73
2022/03/19 06:22:20;;;;;;;136.85;60.70;;;1.20;99.90;;;;;;5056095;28;20025;-72
2022/03/19 06:24:46;;;;;;;129.50;59.42;;;1.30;99.90;;;;;;5054776;28;20025;-73
2022/03/19 06:27:12;;;;;;;139.55;58.42;;;1.40;99.90;;;;;;5055710;28;20459;-74
2022/03/19 06:29:38;;;;;;;138.73;63.33;;;1.50;99.90;;;;;;5055347;28;20025;-74
2022/03/19 06:32:04;;;;;;;150.15;63.40;;;1.60;99.90;;;;;;5055930;28;20044;-73
2022/03/19 06:34:31;;;;;;;130.38;61.17;;;1.70;99.90;;;;;;5055617;28;20037;-72
2022/03/19 06:39:42;;;;;;;143.52;65.95;;;1.90;99.90;;;;;;5055549;28;20538;-75
2022/03/19 06:42:07;;;;;;;165.75;72.93;;;2.10;99.90;;;;;;5055366;28;20037;-76
2022/03/19 06:44:33;;;;;;;143.73;62.67;;;2.20;99.90;;;;;;5054388;28;20060;-74
2022/03/19 06:46:59;;;;;;;128.20;57.53;;;2.20;99.90;;;;;;5055498;28;20028;-74
2022/03/19 06:49:27;;;;;;;114.88;51.65;;;2.40;99.90;;;;;;5055002;28;20032;-74
2022/03/19 06:51:53;;;;;;;114.55;52.35;;;2.50;99.90;;;;;;5055235;28;20124;-74
2022/03/19 06:54:18;;;;;;;120.32;51.47;;;2.60;99.90;;;;;;5055553;28;20056;-73
2022/03/19 06:56:44;;;;;;;109.03;51.15;;;2.80;99.90;;;;;;5055540;28;20021;-73
2022/03/19 06:59:10;;;;;;;127.50;54.75;;;2.90;99.90;;;;;;5055227;28;20033;-73
2022/03/19 07:01:36;;;;;;;108.47;50.67;;;3.10;99.90;;;;;;5055074;28;20025;-75
2022/03/19 07:04:03;;;;;;;115.85;53.55;;;3.20;99.90;;;;;;5055323;28;20068;-75
2022/03/19 07:06:29;;;;;;;88.93;41.05;;;3.40;99.90;;;;;;5055027;28;20052;-72
2022/03/19 07:08:55;;;;;;;63.03;34.08;;;3.50;99.90;;;;;;5055097;28;20086;-73
2022/03/19 07:11:21;;;;;;;62.38;31.40;;;3.60;99.90;;;;;;5054219;28;20037;-72
2022/03/19 07:13:47;;;;;;;61.60;30.88;;;3.70;99.90;;;;;;5053372;28;20456;-74
2022/03/19 07:16:15;;;;;;;66.30;31.42;;;4.00;99.90;;;;;;5053159;28;20028;-74
2022/03/19 07:18:42;;;;;;;61.15;28.75;;;4.10;99.90;;;;;;5054463;28;20021;-74
2022/03/19 07:21:09;;;;;;;64.45;31.60;;;4.20;98.70;;;;;;5053207;28;20170;-73
2022/03/19 07:23:35;;;;;;;65.22;31.27;;;4.20;98.50;;;;;;5054325;28;20025;-74
2022/03/19 07:26:01;;;;;;;64.25;30.98;;;4.50;98.10;;;;;;5054304;28;20138;-75
2022/03/19 07:28:28;;;;;;;67.85;32.60;;;4.50;96.90;;;;;;5057091;28;20047;-75
2022/03/19 07:30:55;;;;;;;81.82;34.45;;;4.80;97.70;;;;;;5054592;28;20094;-75
2022/03/19 07:33:21;;;;;;;62.03;32.35;;;5.00;97.70;;;;;;5055581;28;20032;-74
2022/03/19 07:35:46;;;;;;;68.80;33.42;;;5.00;97.60;;;;;;5054978;28;20028;-76
2022/03/19 07:38:12;;;;;;;77.85;43.55;;;5.40;97.10;;;;;;5054289;28;20134;-75
2022/03/19 07:43:24;;;;;;;127.82;72.95;;;5.80;94.60;;;;;;5053787;28;20043;-75
2022/03/19 07:45:51;;;;;;;69.28;35.20;;;5.90;93.90;;;;;;5052493;28;20017;-75
2022/03/19 07:48:20;;;;;;;86.00;40.60;;;5.90;92.00;;;;;;5053541;28;20017;-74
2022/03/19 07:50:47;;;;;;;81.45;40.47;;;6.10;91.50;;;;;;5053304;28;20095;-74
2022/03/19 07:53:13;;;;;;;72.43;35.67;;;6.10;91.60;;;;;;5052998;28;20017;-74
2022/03/19 07:55:39;;;;;;;68.60;33.33;;;6.40;91.40;;;;;;5053462;28;20028;-75
2022/03/19 07:58:05;;;;;;;81.53;37.20;;;6.70;90.10;;;;;;5053350;28;20021;-77
2022/03/19 08:00:31;;;;;;;64.35;36.53;;;6.80;87.60;;;;;;5053295;28;20013;-75
2022/03/19 08:02:58;;;;;;;67.47;35.83;;;6.90;87.80;;;;;;5053169;28;20071;-75
2022/03/19 08:05:24;;;;;;;65.00;34.72;;;7.10;84.70;;;;;;5053460;28;20032;-77
2022/03/19 08:07:51;;;;;;;79.18;41.22;;;7.30;81.80;;;;;;5053619;28;20021;-75
2022/03/19 08:10:18;;;;;;;72.85;38.08;;;7.60;81.80;;;;;;5052489;28;20376;-75
2022/03/19 08:12:45;;;;;;;68.53;36.03;;;7.70;83.90;;;;;;5053551;28;20021;-76
2022/03/19 08:15:11;;;;;;;71.80;37.45;;;7.70;81.80;;;;;;5053587;28;20017;-75
2022/03/19 08:17:41;;;;;;;63.28;37.33;;;8.10;81.40;;;;;;5053455;28;20056;-74
2022/03/19 08:20:07;;;;;;;76.93;42.80;;;8.30;80.90;;;;;;5053181;28;20028;-76
2022/03/19 08:22:33;;;;;;;69.60;38.28;;;8.50;80.30;;;;;;5053010;28;20428;-76
2022/03/19 08:24:59;;;;;;;74.10;36.80;;;8.80;77.80;;;;;;5053658;28;20051;-76
2022/03/19 08:27:26;;;;;;;61.45;36.35;;;9.10;76.50;;;;;;5052822;28;20383;-75
2022/03/19 08:29:52;;;;;;;71.50;40.42;;;9.30;75.60;;;;;;5051698;28;20043;-75
2022/03/19 08:32:18;;;;;;;66.72;38.25;;;9.10;74.30;;;;;;5053373;28;20029;-75
2022/03/19 08:34:45;;;;;;;71.63;42.28;;;9.50;72.70;;;;;;5053288;28;20017;-76
2022/03/19 08:37:11;;;;;;;71.00;43.88;;;9.80;72.00;;;;;;5052490;28;20383;-76
2022/03/19 08:42:22;;;;;;;76.07;43.53;;;9.80;72.20;;;;;;5051911;28;20391;-75
2022/03/19 08:44:48;;;;;;;103.47;56.72;;;9.90;71.50;;;;;;5053166;28;20456;-76
2022/03/19 08:47:14;;;;;;;75.13;42.75;;;10.10;72.50;;;;;;5053071;28;20378;-76
2022/03/19 08:49:40;;;;;;;111.72;57.25;;;9.90;69.20;;;;;;5053507;28;20372;-76
2022/03/19 08:52:06;;;;;;;81.32;45.17;;;10.20;69.70;;;;;;5053042;28;20475;-75
2022/03/19 08:54:32;;;;;;;78.85;45.72;;;10.40;68.50;;;;;;5053284;28;20033;-76
2022/03/19 08:56:59;;;;;;;84.35;48.42;;;10.60;69.20;;;;;;5053636;28;20021;-73
2022/03/19 08:59:25;;;;;;;80.07;47.67;;;10.90;67.90;;;;;;5053530;28;20095;-74
2022/03/19 09:01:52;;;;;;;170.57;85.63;;;10.90;68.00;;;;;;5052315;28;20068;-74
2022/03/19 09:04:18;;;;;;;87.50;46.97;;;11.10;68.20;;;;;;5052980;28;20017;-75
2022/03/19 09:06:45;;;;;;;79.68;48.33;;;11.10;65.50;;;;;;5050241;28;20471;-76
2022/03/19 09:09:13;;;;;;;134.32;72.38;;;11.00;66.20;;;;;;5052569;28;20025;-76
2022/03/19 09:11:40;;;;;;;198.40;106.15;;;11.30;65.80;;;;;;5051656;28;20415;-74
2022/03/19 09:14:07;;;;;;;180.60;112.85;;;11.80;68.30;;;;;;5056492;28;20391;-74
2022/03/19 09:16:34;;;;;;;84.28;46.75;;;12.00;63.90;;;;;;5057216;28;20053;-74
2022/03/19 09:19:01;;;;;;;80.47;45.75;;;12.00;65.30;;;;;;5057396;28;20021;-75
2022/03/19 09:21:29;;;;;;;88.88;50.58;;;12.10;63.30;;;;;;5056985;28;20523;-75
2022/03/19 09:23:55;;;;;;;88.18;53.40;;;12.20;64.60;;;;;;5056940;28;20112;-75
2022/03/19 09:26:22;;;;;;;81.43;48.92;;;12.20;62.80;;;;;;5056755;28;20021;-75
2022/03/19 09:28:47;;;;;;;78.93;44.63;;;12.40;62.30;;;;;;5056766;28;20057;-74
2022/03/19 09:31:15;;;;;;;71.03;43.28;;;12.60;62.10;;;;;;5056132;28;20124;-76
2022/03/19 09:33:42;;;;;;;78.35;46.38;;;12.60;63.30;;;;;;5056775;28;20464;-75
2022/03/19 09:36:07;;;;;;;57.83;35.65;;;13.00;61.90;;;;;;5056526;28;20025;-75
2022/03/19 09:38:33;;;;;;;64.10;37.40;;;12.70;59.90;;;;;;5057117;28;20033;-75
2022/03/19 09:41:00;;;;;;;60.42;35.88;;;13.00;59.50;;;;;;5056349;28;20075;-75
2022/03/19 09:43:27;;;;;;;59.22;37.42;;;12.80;59.60;;;;;;5056288;28;20482;-75
2022/03/19 09:45:53;;;;;;;65.25;38.75;;;13.30;60.70;;;;;;5056423;28;20031;-76
2022/03/19 09:48:22;;;;;;;55.28;32.25;;;13.70;59.10;;;;;;5056637;28;20021;-75
2022/03/19 09:50:56;;;;;;;50.45;29.80;;;13.60;59.40;;;;;;5055381;28;20036;-76
2022/03/19 09:53:23;;;;;;;41.95;26.85;;;13.50;59.70;;;;;;5054645;28;20528;-74
2022/03/19 09:55:53;;;;;;;46.88;28.45;;;13.50;57.90;;;;;;5055857;28;20048;-75
2022/03/19 09:58:22;;;;;;;42.20;27.05;;;13.50;58.80;;;;;;5055504;28;20033;-75
2022/03/19 10:00:48;;;;;;;43.63;27.20;;;13.60;57.00;;;;;;5055452;28;20033;-75
2022/03/19 10:03:14;;;;;;;63.15;36.28;;;13.70;56.80;;;;;;5055597;28;20112;-75
2022/03/19 10:08:36;;;;;;;45.67;29.20;;;14.00;54.50;;;;;;5055664;28;20474;-76
2022/03/19 10:11:20;;;;;;;52.70;33.10;;;14.70;53.70;;;;;;5055178;28;20043;-74
2022/03/19 10:13:47;;;;;;;51.03;31.20;;;13.80;53.10;;;;;;5055325;28;20025;-76
2022/03/19 10:16:26;;;;;;;43.83;27.02;;;14.50;54.30;;;;;;5055297;28;20035;-75
2022/03/19 10:18:59;;;;;;;45.10;27.85;;;14.60;52.20;;;;;;5055574;28;20029;-74
2022/03/19 10:21:26;;;;;;;40.80;26.92;;;14.30;51.90;;;;;;5055165;28;20517;-75
2022/03/19 10:23:53;;;;;;;50.63;28.65;;;14.80;51.30;;;;;;5054968;28;20025;-76
2022/03/19 10:26:26;;;;;;;39.95;25.65;;;14.90;51.70;;;;;;5054595;28;20452;-74
2022/03/19 10:29:11;;;;;;;45.00;26.50;;;15.10;49.80;;;;;;5055433;28;20071;-76
2022/03/19 10:31:46;;;;;;;46.67;28.50;;;15.70;48.60;;;;;;5055351;28;20464;-74
2022/03/19 10:34:14;;;;;;;50.97;29.30;;;15.30;48.50;;;;;;5054676;28;20079;-75
2022/03/19 10:36:41;;;;;;;38.03;25.85;;;15.80;49.40;;;;;;5055017;28;20021;-74
2022/03/19 10:39:21;;;;;;;55.28;37.97;;;14.60;49.20;;;;;;5054626;28;20032;-75
2022/03/19 10:41:48;;;;;;;49.70;31.52;;;15.00;49.10;;;;;;5054666;28;20475;-75
2022/03/19 10:44:16;;;;;;;48.88;30.80;;;15.20;48.60;;;;;;5054638;28;20090;-75
2022/03/19 10:46:50;;;;;;;49.63;30.20;;;15.80;47.60;;;;;;5054804;28;20033;-74
2022/03/19 10:49:18;;;;;;;48.40;27.83;;;16.00;46.70;;;;;;5055119;28;20021;-75
2022/03/19 10:51:46;;;;;;;62.35;34.83;;;15.70;46.20;;;;;;5054743;28;20112;-75
2022/03/19 10:54:14;;;;;;;47.50;30.45;;;15.60;44.80;;;;;;5054483;28;20021;-75
2022/03/19 10:56:43;;;;;;;32.58;20.98;;;16.40;47.80;;;;;;5054706;28;20057;-75
2022/03/19 10:59:09;;;;;;;35.67;23.80;;;16.50;42.90;;;;;;5054628;28;20029;-75
2022/03/19 11:01:36;;;;;;;30.27;19.45;;;16.80;44.40;;;;;;5054245;28;20365;-75
2022/03/19 11:04:04;;;;;;;27.35;19.55;;;16.70;44.60;;;;;;5054401;28;20025;-75
2022/03/19 11:06:34;;;;;;;37.72;25.67;;;16.80;43.30;;;;;;5054750;28;20021;-76
2022/03/19 11:09:06;;;;;;;46.38;22.92;;;16.70;44.80;;;;;;5054426;28;20111;-76
2022/03/19 11:11:40;;;;;;;42.72;26.27;;;16.50;42.00;;;;;;5054432;28;20040;-75
2022/03/19 11:14:08;;;;;;;40.13;24.52;;;15.90;42.20;;;;;;5054325;28;20102;-74
2022/03/19 11:16:37;;;;;;;33.22;21.45;;;14.10;43.80;;;;;;5054472;28;20028;-75
2022/03/19 11:19:04;;;;;;;27.70;17.60;;;13.00;45.20;;;;;;5053664;28;20021;-75
2022/03/19 11:21:32;;;;;;;31.75;19.40;;;12.80;46.20;;;;;;5054188;28;20032;-75
2022/03/19 11:24:24;;;;;;;26.45;17.08;;;12.90;46.80;;;;;;5054333;28;20025;-75
2022/03/19 11:26:52;;;;;;;33.78;15.70;;;12.50;46.20;;;;;;5054157;28;20456;-73
2022/03/19 11:29:21;;;;;;;32.42;18.92;;;12.40;47.60;;;;;;5053527;28;20021;-74
2022/03/19 11:31:58;;;;;;;32.40;19.75;;;12.30;48.20;;;;;;5053527;28;20053;-75
2022/03/19 11:34:24;;;;;;;45.70;24.45;;;12.10;49.60;;;;;;5053761;28;20025;-75
2022/03/19 11:37:08;;;;;;;41.03;21.48;;;12.10;48.50;;;;;;5052423;28;20036;-75
2022/03/19 11:39:34;;;;;;;35.80;21.02;;;12.00;47.70;;;;;;5051453;28;20021;-74
2022/03/19 11:42:00;;;;;;;41.88;22.48;;;11.90;48.80;;;;;;5053411;28;20032;-76
2022/03/19 11:44:27;;;;;;;34.17;18.42;;;12.30;49.80;;;;;;5052769;28;20024;-74
2022/03/19 11:47:02;;;;;;;56.50;29.98;;;13.00;47.90;;;;;;5053212;28;20036;-75
2022/03/19 11:49:48;;;;;;;48.42;24.55;;;14.50;48.40;;;;;;5050298;28;20044;-75
2022/03/19 11:52:23;;;;;;;146.63;73.85;;;14.60;45.20;;;;;;5051013;28;20028;-75
2022/03/19 11:55:04;;;;;;;73.47;33.75;;;13.80;45.00;;;;;;5050319;28;20028;-74
2022/03/19 11:58:02;;;;;;;29.13;16.83;;;13.30;45.00;;;;;;5050129;28;20092;-76
2022/03/19 12:00:31;;;;;;;30.02;16.65;;;12.60;46.90;;;;;;5049099;28;20029;-75
2022/03/19 12:03:13;;;;;;;40.72;23.20;;;12.20;46.70;;;;;;5053456;28;20029;-74
2022/03/19 12:05:43;;;;;;;;;;;11.90;47.30;;;;;;5054311;28;20115;-75
2022/03/19 12:08:16;;;;;;;44.38;22.92;;;11.90;47.80;;;;;;5052857;28;20360;-75
2022/03/19 12:10:57;;;;;;;65.13;29.13;;;11.60;47.70;;;;;;5052999;28;20060;-75
2022/03/19 12:13:28;;;;;;;31.35;17.52;;;11.60;48.70;;;;;;5052939;28;20044;-74
2022/03/19 12:15:56;;;;;;;34.85;19.45;;;11.30;48.30;;;;;;5053145;28;20033;-75
2022/03/19 12:18:28;;;;;;;36.05;19.40;;;11.30;47.80;;;;;;5052969;28;20108;-75
2022/03/19 12:20:58;;;;;;;24.65;15.27;;;11.40;47.10;;;;;;5052952;28;20025;-75
2022/03/19 12:23:27;;;;;;;32.33;18.40;;;11.30;47.00;;;;;;5049291;28;20535;-74
2022/03/19 12:26:05;;;;;;;31.52;18.90;;;11.30;48.10;;;;;;5051301;28;20430;-74
2022/03/19 12:28:31;;;;;;;44.47;23.42;;;11.50;47.00;;;;;;5049857;28;20032;-75
2022/03/19 12:31:08;;;;;;;46.55;23.83;;;11.30;46.60;;;;;;5051209;28;20061;-74
2022/03/19 12:33:35;;;;;;;121.50;54.25;;;11.10;48.80;;;;;;5051731;28;20025;-75
2022/03/19 12:36:16;;;;;;;162.20;72.03;;;10.90;48.60;;;;;;5051519;28;20460;-74
2022/03/19 12:38:43;;;;;;;65.78;32.83;;;11.00;47.90;;;;;;5047532;28;20021;-75
2022/03/19 12:41:31;;;;;;;68.43;33.63;;;11.80;48.30;;;;;;5051321;28;20470;-74
2022/03/19 12:44:00;;;;;;;63.67;28.67;;;12.60;45.20;;;;;;5050872;28;20468;-73